sensor_id;sensor_type;location;lat;lon;timestamp;pressure;altitude;pressure_sealevel;temperature;humidity
37068;BME280;22982;42.848;25.468;2022-11-15T00:02:44;96893.28;;;7.46;100.00
37068;BME280;22982;42.848;25.468;2022-11-15T00:08:05;96886.41;;;7.44;100.00
37068;BME280;22982;42.848;25.468;2022-11-15T00:13:26;96833.91;;;7.06;100.00
37068;BME280;22982;42.848;25.468;2022-11-15T00:18:48;96896.22;;;7.37;100.00
37068;BME280;22982;42.848;25.468;2022-11-15T00:24:10;96820.28;;;6.99;100.00
37068;BME280;22982;42.848;25.468;2022-11-15T00:29:31;96855.78;;;7.25;100.00
37068;BME280;22982;42.848;25.468;2022-11-15T00:34:51;96835.75;;;7.26;100.00
37068;BME280;22982;42.848;25.468;2022-11-15T00:40:13;96871.75;;;7.63;100.00
37068;BME280;22982;42.848;25.468;2022-11-15T00:45:34;96826.84;;;7.32;100.00
37068;BME280;22982;42.848;25.468;2022-11-15T00:50:55;96811.59;;;7.21;100.00
37068;BME280;22982;42.848;25.468;2022-11-15T00:56:16;96813.22;;;7.25;100.00
37068;BME280;22982;42.848;25.468;2022-11-15T01:01:37;96821.41;;;7.16;100.00
37068;BME280;22982;42.848;25.468;2022-11-15T01:06:59;96790.63;;;7.02;100.00
37068;BME280;22982;42.848;25.468;2022-11-15T01:12:20;96821.72;;;7.30;100.00
37068;BME280;22982;42.848;25.468;2022-11-15T01:17:41;96805.97;;;7.09;100.00
37068;BME280;22982;42.848;25.468;2022-11-15T01:23:01;96838.28;;;7.05;100.00
37068;BME280;22982;42.848;25.468;2022-11-15T01:28:22;96827.16;;;7.24;100.00
37068;BME280;22982;42.848;25.468;2022-11-15T01:33:44;96783.78;;;6.99;100.00
37068;BME280;22982;42.848;25.468;2022-11-15T01:39:04;96793.72;;;7.12;100.00
37068;BME280;22982;42.848;25.468;2022-11-15T01:44:37;96834.78;;;7.52;100.00
37068;BME280;22982;42.848;25.468;2022-11-15T01:50:29;96805.03;;;7.34;100.00
37068;BME280;22982;42.848;25.468;2022-11-15T01:55:52;96776.13;;;7.17;100.00
37068;BME280;22982;42.848;25.468;2022-11-15T02:01:14;96819.53;;;7.41;100.00
37068;BME280;22982;42.848;25.468;2022-11-15T02:06:36;96829.75;;;7.24;100.00
37068;BME280;22982;42.848;25.468;2022-11-15T02:11:59;96787.78;;;6.84;100.00
37068;BME280;22982;42.848;25.468;2022-11-15T02:29:08;96808.38;;;6.43;100.00
37068;BME280;22982;42.848;25.468;2022-11-15T02:41:01;96827.88;;;6.57;100.00
37068;BME280;22982;42.848;25.468;2022-11-15T02:46:17;96785.56;;;6.00;100.00
37068;BME280;22982;42.848;25.468;2022-11-15T02:51:39;96746.22;;;5.82;100.00
37068;BME280;22982;42.848;25.468;2022-11-15T02:57:12;96819.16;;;6.07;100.00
37068;BME280;22982;42.848;25.468;2022-11-15T03:08:30;96758.84;;;5.68;100.00
37068;BME280;22982;42.848;25.468;2022-11-15T03:19:47;96804.75;;;5.69;100.00
37068;BME280;22982;42.848;25.468;2022-11-15T03:25:11;96812.88;;;5.86;100.00
37068;BME280;22982;42.848;25.468;2022-11-15T03:30:36;96811.38;;;5.79;100.00
37068;BME280;22982;42.848;25.468;2022-11-15T03:35:58;96794.03;;;5.53;100.00
37068;BME280;22982;42.848;25.468;2022-11-15T03:41:29;96741.78;;;5.32;100.00
37068;BME280;22982;42.848;25.468;2022-11-15T03:46:56;96794.69;;;5.58;100.00
37068;BME280;22982;42.848;25.468;2022-11-15T03:52:21;96745.53;;;5.50;100.00
37068;BME280;22982;42.848;25.468;2022-11-15T03:57:43;96726.03;;;5.37;100.00
37068;BME280;22982;42.848;25.468;2022-11-15T04:03:04;96780.59;;;5.65;100.00
37068;BME280;22982;42.848;25.468;2022-11-15T04:08:25;96770.03;;;5.43;100.00
37068;BME280;22982;42.848;25.468;2022-11-15T04:13:46;96772.13;;;5.32;100.00
37068;BME280;22982;42.848;25.468;2022-11-15T04:19:07;96718.13;;;5.13;100.00
37068;BME280;22982;42.848;25.468;2022-11-15T04:24:47;96767.84;;;5.57;100.00
37068;BME280;22982;42.848;25.468;2022-11-15T04:30:28;96782.66;;;5.82;100.00
37068;BME280;22982;42.848;25.468;2022-11-15T04:35:53;96765.31;;;5.81;100.00
37068;BME280;22982;42.848;25.468;2022-11-15T04:41:33;96742.19;;;5.73;100.00
37068;BME280;22982;42.848;25.468;2022-11-15T04:46:53;96732.50;;;5.77;100.00
37068;BME280;22982;42.848;25.468;2022-11-15T04:52:14;96729.22;;;5.72;100.00
37068;BME280;22982;42.848;25.468;2022-11-15T04:57:36;96727.22;;;5.80;100.00
37068;BME280;22982;42.848;25.468;2022-11-15T05:02:57;96730.94;;;5.73;100.00
37068;BME280;22982;42.848;25.468;2022-11-15T05:08:37;96743.66;;;5.81;100.00
37068;BME280;22982;42.848;25.468;2022-11-15T05:13:58;96714.28;;;5.77;100.00
37068;BME280;22982;42.848;25.468;2022-11-15T05:19:19;96735.22;;;5.74;100.00
37068;BME280;22982;42.848;25.468;2022-11-15T05:24:40;96719.59;;;5.74;100.00
37068;BME280;22982;42.848;25.468;2022-11-15T05:30:01;96760.56;;;5.94;100.00
37068;BME280;22982;42.848;25.468;2022-11-15T05:35:38;96750.94;;;5.98;100.00
37068;BME280;22982;42.848;25.468;2022-11-15T05:41:00;96763.22;;;5.92;100.00
37068;BME280;22982;42.848;25.468;2022-11-15T05:46:22;96747.59;;;5.92;100.00
37068;BME280;22982;42.848;25.468;2022-11-15T05:51:44;96755.28;;;5.97;100.00
37068;BME280;22982;42.848;25.468;2022-11-15T05:57:07;96768.31;;;5.97;100.00
37068;BME280;22982;42.848;25.468;2022-11-15T06:02:28;96761.53;;;5.91;100.00
37068;BME280;22982;42.848;25.468;2022-11-15T06:07:49;96761.38;;;5.96;100.00
37068;BME280;22982;42.848;25.468;2022-11-15T06:13:11;96769.94;;;6.00;100.00
37068;BME280;22982;42.848;25.468;2022-11-15T06:18:33;96778.34;;;6.33;100.00
37068;BME280;22982;42.848;25.468;2022-11-15T06:23:54;96768.13;;;6.27;100.00
37068;BME280;22982;42.848;25.468;2022-11-15T06:29:15;96758.16;;;6.15;100.00
37068;BME280;22982;42.848;25.468;2022-11-15T06:34:36;96742.38;;;6.19;100.00
37068;BME280;22982;42.848;25.468;2022-11-15T06:39:57;96769.09;;;6.49;100.00
37068;BME280;22982;42.848;25.468;2022-11-15T06:45:19;96773.66;;;6.90;100.00
37068;BME280;22982;42.848;25.468;2022-11-15T06:50:40;96736.84;;;6.52;100.00
37068;BME280;22982;42.848;25.468;2022-11-15T06:56:02;96738.56;;;6.53;100.00
37068;BME280;22982;42.848;25.468;2022-11-15T07:01:26;96738.16;;;6.64;100.00
37068;BME280;22982;42.848;25.468;2022-11-15T07:06:48;96738.94;;;6.66;100.00
37068;BME280;22982;42.848;25.468;2022-11-15T07:12:18;96717.06;;;6.46;100.00
37068;BME280;22982;42.848;25.468;2022-11-15T07:17:42;96725.91;;;6.42;100.00
37068;BME280;22982;42.848;25.468;2022-11-15T07:23:05;96732.44;;;6.78;100.00
37068;BME280;22982;42.848;25.468;2022-11-15T07:28:26;96694.72;;;6.86;100.00
37068;BME280;22982;42.848;25.468;2022-11-15T07:33:50;96714.75;;;7.52;100.00
37068;BME280;22982;42.848;25.468;2022-11-15T07:39:11;96699.94;;;7.73;100.00
37068;BME280;22982;42.848;25.468;2022-11-15T07:44:32;96719.50;;;7.63;100.00
37068;BME280;22982;42.848;25.468;2022-11-15T07:49:54;96698.91;;;7.77;100.00
37068;BME280;22982;42.848;25.468;2022-11-15T07:55:14;96707.03;;;7.70;100.00
37068;BME280;22982;42.848;25.468;2022-11-15T08:06:24;96652.09;;;7.93;100.00
37068;BME280;22982;42.848;25.468;2022-11-15T08:12:29;96684.00;;;8.20;100.00
37068;BME280;22982;42.848;25.468;2022-11-15T08:18:03;96721.44;;;8.60;100.00
37068;BME280;22982;42.848;25.468;2022-11-15T08:23:24;96684.31;;;8.33;100.00
37068;BME280;22982;42.848;25.468;2022-11-15T08:28:45;96696.19;;;8.59;100.00
37068;BME280;22982;42.848;25.468;2022-11-15T08:34:06;96651.59;;;8.24;100.00
37068;BME280;22982;42.848;25.468;2022-11-15T08:39:27;96699.75;;;8.58;100.00
37068;BME280;22982;42.848;25.468;2022-11-15T08:44:48;96655.25;;;8.60;100.00
37068;BME280;22982;42.848;25.468;2022-11-15T08:50:09;96675.47;;;9.12;100.00
37068;BME280;22982;42.848;25.468;2022-11-15T08:55:30;96667.88;;;9.25;100.00
37068;BME280;22982;42.848;25.468;2022-11-15T09:00:51;96655.34;;;9.31;100.00
37068;BME280;22982;42.848;25.468;2022-11-15T09:06:12;96630.03;;;8.95;100.00
37068;BME280;22982;42.848;25.468;2022-11-15T09:11:33;96636.34;;;9.09;100.00
37068;BME280;22982;42.848;25.468;2022-11-15T09:16:54;96611.00;;;9.63;100.00
37068;BME280;22982;42.848;25.468;2022-11-15T09:22:19;96613.22;;;9.53;100.00
37068;BME280;22982;42.848;25.468;2022-11-15T09:27:40;96601.78;;;9.89;100.00
37068;BME280;22982;42.848;25.468;2022-11-15T09:33:18;96588.13;;;10.00;100.00
37068;BME280;22982;42.848;25.468;2022-11-15T09:38:39;96594.56;;;10.60;96.66
37068;BME280;22982;42.848;25.468;2022-11-15T09:49:30;96583.88;;;11.55;91.78
37068;BME280;22982;42.848;25.468;2022-11-15T09:54:53;96572.41;;;12.30;87.78
37068;BME280;22982;42.848;25.468;2022-11-15T10:05:43;96562.94;;;11.98;87.01
37068;BME280;22982;42.848;25.468;2022-11-15T10:10:48;96553.53;;;12.64;85.89
37068;BME280;22982;42.848;25.468;2022-11-15T10:16:36;96549.41;;;12.19;87.27
37068;BME280;22982;42.848;25.468;2022-11-15T10:26:54;96482.03;;;13.76;79.63
37068;BME280;22982;42.848;25.468;2022-11-15T10:31:57;96485.69;;;14.73;73.84
37068;BME280;22982;42.848;25.468;2022-11-15T10:37:00;96491.38;;;15.74;68.96
37068;BME280;22982;42.848;25.468;2022-11-15T10:42:28;96453.34;;;14.83;71.11
37068;BME280;22982;42.848;25.468;2022-11-15T10:47:31;96467.56;;;14.93;71.87
37068;BME280;22982;42.848;25.468;2022-11-15T10:52:45;96456.31;;;14.54;72.61
37068;BME280;22982;42.848;25.468;2022-11-15T10:57:51;96454.19;;;13.85;77.50
37068;BME280;22982;42.848;25.468;2022-11-15T11:03:03;96452.16;;;14.02;78.72
37068;BME280;22982;42.848;25.468;2022-11-15T11:13:26;96414.03;;;13.82;77.63
37068;BME280;22982;42.848;25.468;2022-11-15T11:18:38;96448.38;;;14.06;79.56
37068;BME280;22982;42.848;25.468;2022-11-15T11:24:04;96441.56;;;14.27;78.12
37068;BME280;22982;42.848;25.468;2022-11-15T11:29:31;96425.94;;;14.24;77.81
37068;BME280;22982;42.848;25.468;2022-11-15T11:34:57;96426.81;;;13.75;78.31
37068;BME280;22982;42.848;25.468;2022-11-15T11:40:34;96400.81;;;13.57;78.69
37068;BME280;22982;42.848;25.468;2022-11-15T11:45:59;96422.97;;;13.92;78.35
37068;BME280;22982;42.848;25.468;2022-11-15T11:51:12;96395.03;;;13.39;80.31
37068;BME280;22982;42.848;25.468;2022-11-15T11:56:27;96381.97;;;13.12;82.33
37068;BME280;22982;42.848;25.468;2022-11-15T12:01:36;96383.84;;;12.85;84.09
37068;BME280;22982;42.848;25.468;2022-11-15T12:16:53;96379.69;;;12.55;87.02
37068;BME280;22982;42.848;25.468;2022-11-15T12:32:49;96358.41;;;12.32;88.14
37068;BME280;22982;42.848;25.468;2022-11-15T12:37:55;96384.69;;;12.32;88.82
37068;BME280;22982;42.848;25.468;2022-11-15T12:59:00;96364.19;;;11.68;93.32
37068;BME280;22982;42.848;25.468;2022-11-15T13:19:52;96318.81;;;11.52;93.80
37068;BME280;22982;42.848;25.468;2022-11-15T13:24:55;96325.06;;;11.37;94.54
37068;BME280;22982;42.848;25.468;2022-11-15T13:29:58;96318.44;;;11.02;96.31
37068;BME280;22982;42.848;25.468;2022-11-15T13:35:00;96317.56;;;10.73;98.75
37068;BME280;22982;42.848;25.468;2022-11-15T13:40:27;96317.38;;;10.62;99.91
37068;BME280;22982;42.848;25.468;2022-11-15T13:45:32;96325.53;;;10.71;100.00
37068;BME280;22982;42.848;25.468;2022-11-15T13:50:36;96313.03;;;10.32;100.00
37068;BME280;22982;42.848;25.468;2022-11-15T13:55:41;96288.13;;;10.09;100.00
37068;BME280;22982;42.848;25.468;2022-11-15T14:00:45;96313.53;;;10.23;100.00
37068;BME280;22982;42.848;25.468;2022-11-15T14:06:20;96311.41;;;9.99;100.00
37068;BME280;22982;42.848;25.468;2022-11-15T14:11:23;96297.50;;;9.97;100.00
37068;BME280;22982;42.848;25.468;2022-11-15T14:16:34;96295.44;;;9.72;100.00
37068;BME280;22982;42.848;25.468;2022-11-15T14:27:21;96266.03;;;9.36;100.00
37068;BME280;22982;42.848;25.468;2022-11-15T14:32:26;96306.72;;;9.58;100.00
37068;BME280;22982;42.848;25.468;2022-11-15T14:37:33;96305.13;;;9.39;100.00
37068;BME280;22982;42.848;25.468;2022-11-15T14:42:39;96310.69;;;9.33;100.00
37068;BME280;22982;42.848;25.468;2022-11-15T14:47:42;96325.94;;;9.41;100.00
37068;BME280;22982;42.848;25.468;2022-11-15T14:52:45;96322.09;;;9.32;100.00
37068;BME280;22982;42.848;25.468;2022-11-15T14:57:47;96291.75;;;9.28;100.00
37068;BME280;22982;42.848;25.468;2022-11-15T15:02:52;96314.81;;;9.37;100.00
37068;BME280;22982;42.848;25.468;2022-11-15T15:07:54;96317.78;;;9.31;100.00
37068;BME280;22982;42.848;25.468;2022-11-15T15:12:57;96269.16;;;9.11;100.00
37068;BME280;22982;42.848;25.468;2022-11-15T15:17:59;96279.03;;;9.22;100.00
37068;BME280;22982;42.848;25.468;2022-11-15T15:23:01;96279.13;;;9.36;100.00
37068;BME280;22982;42.848;25.468;2022-11-15T15:28:04;96295.91;;;9.32;100.00
37068;BME280;22982;42.848;25.468;2022-11-15T15:33:06;96308.97;;;9.48;100.00
37068;BME280;22982;42.848;25.468;2022-11-15T15:38:12;96272.19;;;9.19;100.00
37068;BME280;22982;42.848;25.468;2022-11-15T15:43:15;96279.78;;;9.24;100.00
37068;BME280;22982;42.848;25.468;2022-11-15T15:48:17;96290.84;;;9.29;100.00
37068;BME280;22982;42.848;25.468;2022-11-15T15:53:19;96305.38;;;9.51;100.00
37068;BME280;22982;42.848;25.468;2022-11-15T15:58:21;96261.22;;;9.29;100.00
37068;BME280;22982;42.848;25.468;2022-11-15T16:03:24;96242.72;;;9.16;100.00
37068;BME280;22982;42.848;25.468;2022-11-15T16:08:26;96278.28;;;9.20;100.00
37068;BME280;22982;42.848;25.468;2022-11-15T16:13:49;96266.59;;;9.10;100.00
37068;BME280;22982;42.848;25.468;2022-11-15T16:18:51;96277.34;;;9.37;100.00
37068;BME280;22982;42.848;25.468;2022-11-15T16:23:55;96271.25;;;9.36;100.00
37068;BME280;22982;42.848;25.468;2022-11-15T16:28:58;96265.28;;;9.34;100.00
37068;BME280;22982;42.848;25.468;2022-11-15T16:34:02;96273.38;;;9.46;100.00
37068;BME280;22982;42.848;25.468;2022-11-15T16:39:04;96266.69;;;9.40;100.00
37068;BME280;22982;42.848;25.468;2022-11-15T16:44:07;96271.44;;;9.33;100.00
37068;BME280;22982;42.848;25.468;2022-11-15T16:49:13;96273.88;;;9.20;100.00
37068;BME280;22982;42.848;25.468;2022-11-15T16:54:18;96279.53;;;9.13;100.00
37068;BME280;22982;42.848;25.468;2022-11-15T16:59:20;96285.53;;;9.15;100.00
37068;BME280;22982;42.848;25.468;2022-11-15T17:04:22;96243.28;;;8.73;100.00
37068;BME280;22982;42.848;25.468;2022-11-15T17:09:25;96262.50;;;8.72;100.00
37068;BME280;22982;42.848;25.468;2022-11-15T17:14:27;96246.06;;;8.19;100.00
37068;BME280;22982;42.848;25.468;2022-11-15T17:19:29;96259.13;;;8.37;100.00
37068;BME280;22982;42.848;25.468;2022-11-15T17:24:31;96228.97;;;8.47;100.00
37068;BME280;22982;42.848;25.468;2022-11-15T17:29:35;96239.53;;;8.46;100.00
37068;BME280;22982;42.848;25.468;2022-11-15T17:34:37;96213.75;;;8.38;100.00
37068;BME280;22982;42.848;25.468;2022-11-15T17:39:39;96215.91;;;8.47;100.00
37068;BME280;22982;42.848;25.468;2022-11-15T17:44:41;96211.75;;;8.60;100.00
37068;BME280;22982;42.848;25.468;2022-11-15T17:49:44;96235.63;;;8.86;100.00
37068;BME280;22982;42.848;25.468;2022-11-15T17:54:46;96232.28;;;9.00;100.00
37068;BME280;22982;42.848;25.468;2022-11-15T17:59:48;96204.75;;;8.77;100.00
37068;BME280;22982;42.848;25.468;2022-11-15T18:04:50;96190.50;;;8.33;100.00
37068;BME280;22982;42.848;25.468;2022-11-15T18:09:52;96193.81;;;8.19;100.00
37068;BME280;22982;42.848;25.468;2022-11-15T18:14:54;96197.53;;;8.15;100.00
37068;BME280;22982;42.848;25.468;2022-11-15T18:19:57;96191.72;;;7.93;100.00
37068;BME280;22982;42.848;25.468;2022-11-15T18:24:59;96194.72;;;7.85;100.00
37068;BME280;22982;42.848;25.468;2022-11-15T18:30:01;96188.59;;;7.86;100.00
37068;BME280;22982;42.848;25.468;2022-11-15T18:35:06;96174.16;;;7.61;100.00
37068;BME280;22982;42.848;25.468;2022-11-15T18:40:09;96180.34;;;7.94;100.00
37068;BME280;22982;42.848;25.468;2022-11-15T18:45:11;96156.25;;;7.71;100.00
37068;BME280;22982;42.848;25.468;2022-11-15T18:50:15;96167.00;;;7.47;100.00
37068;BME280;22982;42.848;25.468;2022-11-15T18:55:18;96162.38;;;7.18;100.00
37068;BME280;22982;42.848;25.468;2022-11-15T19:00:20;96157.16;;;7.18;100.00
37068;BME280;22982;42.848;25.468;2022-11-15T19:05:23;96163.41;;;6.96;100.00
37068;BME280;22982;42.848;25.468;2022-11-15T19:10:25;96131.97;;;6.63;100.00
37068;BME280;22982;42.848;25.468;2022-11-15T19:15:27;96172.69;;;6.65;100.00
37068;BME280;22982;42.848;25.468;2022-11-15T19:20:29;96160.13;;;6.36;100.00
37068;BME280;22982;42.848;25.468;2022-11-15T19:25:32;96138.66;;;6.30;100.00
37068;BME280;22982;42.848;25.468;2022-11-15T19:30:34;96139.91;;;6.03;100.00
37068;BME280;22982;42.848;25.468;2022-11-15T19:35:36;96154.88;;;5.98;100.00
37068;BME280;22982;42.848;25.468;2022-11-15T19:40:39;96134.72;;;5.82;100.00
37068;BME280;22982;42.848;25.468;2022-11-15T19:45:41;96147.56;;;5.85;100.00
37068;BME280;22982;42.848;25.468;2022-11-15T19:50:43;96117.16;;;5.46;100.00
37068;BME280;22982;42.848;25.468;2022-11-15T19:55:58;96146.41;;;5.72;100.00
37068;BME280;22982;42.848;25.468;2022-11-15T20:01:05;96111.97;;;5.26;100.00
37068;BME280;22982;42.848;25.468;2022-11-15T20:06:11;96103.97;;;5.10;100.00
37068;BME280;22982;42.848;25.468;2022-11-15T20:11:15;96135.59;;;4.99;100.00
37068;BME280;22982;42.848;25.468;2022-11-15T20:16:20;96118.84;;;4.84;100.00
37068;BME280;22982;42.848;25.468;2022-11-15T20:21:48;96067.94;;;4.58;100.00
37068;BME280;22982;42.848;25.468;2022-11-15T20:27:04;96074.59;;;4.65;100.00
37068;BME280;22982;42.848;25.468;2022-11-15T20:32:07;96083.94;;;4.69;100.00
37068;BME280;22982;42.848;25.468;2022-11-15T20:37:09;96092.34;;;4.54;100.00
37068;BME280;22982;42.848;25.468;2022-11-15T20:42:11;96087.44;;;4.24;100.00
37068;BME280;22982;42.848;25.468;2022-11-15T20:47:15;96103.31;;;4.38;100.00
37068;BME280;22982;42.848;25.468;2022-11-15T20:52:18;96096.63;;;4.33;100.00
37068;BME280;22982;42.848;25.468;2022-11-15T20:57:20;96092.97;;;4.15;100.00
37068;BME280;22982;42.848;25.468;2022-11-15T21:02:23;96083.72;;;4.08;100.00
37068;BME280;22982;42.848;25.468;2022-11-15T21:07:25;96044.34;;;3.74;100.00
37068;BME280;22982;42.848;25.468;2022-11-15T21:12:27;96073.94;;;3.92;100.00
37068;BME280;22982;42.848;25.468;2022-11-15T21:17:30;96054.31;;;3.85;100.00
37068;BME280;22982;42.848;25.468;2022-11-15T21:22:39;96068.06;;;3.63;100.00
37068;BME280;22982;42.848;25.468;2022-11-15T21:27:41;96041.56;;;3.55;100.00
37068;BME280;22982;42.848;25.468;2022-11-15T21:32:44;96055.34;;;3.56;100.00
37068;BME280;22982;42.848;25.468;2022-11-15T21:37:46;96052.72;;;3.57;100.00
37068;BME280;22982;42.848;25.468;2022-11-15T21:42:55;96014.16;;;2.99;100.00
37068;BME280;22982;42.848;25.468;2022-11-15T21:47:58;96016.19;;;2.91;100.00
37068;BME280;22982;42.848;25.468;2022-11-15T21:53:00;96002.16;;;2.72;100.00
37068;BME280;22982;42.848;25.468;2022-11-15T21:58:02;96031.09;;;2.58;100.00
37068;BME280;22982;42.848;25.468;2022-11-15T22:03:05;96012.78;;;2.37;100.00
37068;BME280;22982;42.848;25.468;2022-11-15T22:08:07;95995.06;;;2.25;100.00
37068;BME280;22982;42.848;25.468;2022-11-15T22:13:09;96019.88;;;2.30;100.00
37068;BME280;22982;42.848;25.468;2022-11-15T22:18:11;96013.56;;;2.39;100.00
37068;BME280;22982;42.848;25.468;2022-11-15T22:23:14;95994.66;;;2.37;100.00
37068;BME280;22982;42.848;25.468;2022-11-15T22:28:16;96013.00;;;2.56;100.00
37068;BME280;22982;42.848;25.468;2022-11-15T22:33:21;96020.91;;;2.25;100.00
37068;BME280;22982;42.848;25.468;2022-11-15T22:38:25;95987.84;;;2.08;100.00
37068;BME280;22982;42.848;25.468;2022-11-15T22:43:27;95995.44;;;2.13;100.00
37068;BME280;22982;42.848;25.468;2022-11-15T22:48:32;95961.41;;;1.98;100.00
37068;BME280;22982;42.848;25.468;2022-11-15T22:53:35;95964.44;;;1.84;100.00
37068;BME280;22982;42.848;25.468;2022-11-15T22:58:38;95974.41;;;1.68;100.00
37068;BME280;22982;42.848;25.468;2022-11-15T23:03:40;95969.97;;;1.72;100.00
37068;BME280;22982;42.848;25.468;2022-11-15T23:08:43;95956.22;;;1.42;100.00
37068;BME280;22982;42.848;25.468;2022-11-15T23:13:45;95963.91;;;1.45;100.00
37068;BME280;22982;42.848;25.468;2022-11-15T23:18:54;95964.53;;;1.51;100.00
37068;BME280;22982;42.848;25.468;2022-11-15T23:23:56;95939.66;;;1.49;100.00
37068;BME280;22982;42.848;25.468;2022-11-15T23:28:59;95926.78;;;1.47;100.00
37068;BME280;22982;42.848;25.468;2022-11-15T23:34:01;95964.66;;;1.77;100.00
37068;BME280;22982;42.848;25.468;2022-11-15T23:39:03;95920.91;;;1.42;100.00
37068;BME280;22982;42.848;25.468;2022-11-15T23:44:05;95935.13;;;1.84;100.00
37068;BME280;22982;42.848;25.468;2022-11-15T23:49:08;95926.44;;;1.86;100.00
37068;BME280;22982;42.848;25.468;2022-11-15T23:54:10;95918.81;;;1.82;100.00
37068;BME280;22982;42.848;25.468;2022-11-15T23:59:13;95911.78;;;1.87;100.00
